Time;durP1;ratioP1;P1;durP2;ratioP2;P2;SDS_P1;SDS_P2;PMS_P1;PMS_P2;Temp;Humidity;BMP_temperature;BMP_pressure;BME280_temperature;BME280_humidity;BME280_pressure;Samples;Min_cycle;Max_cycle;Signal;HPM_P1;HPM_P2
2021/07/09 00:01:11;;;;;;;;;;;;;;;26.35;46.54;100604.31;3510165;28;19973;-78
2021/07/09 00:02:54;;;;;;;;;;;;;;;26.33;46.56;100599.13;3507341;28;19920;-79
2021/07/09 00:04:34;;;;;;;;;;;;;;;26.33;46.67;100601.84;3508221;28;19924;-78
2021/07/09 00:06:16;;;;;;;;;;;;;;;26.34;46.39;100608.97;3521832;28;20378;-78
2021/07/09 00:07:57;;;;;;;;;;;;;;;26.35;46.42;100612.53;3510127;28;19920;-77
2021/07/09 00:09:37;;;;;;;;;;;;;;;26.35;46.66;100598.84;3506960;28;19928;-79
2021/07/09 00:11:18;;;;;;;;;;;;;;;26.33;46.85;100608.16;3523654;28;19920;-79
2021/07/09 00:12:59;;;;;;;;;;;;;;;26.32;46.71;100602.97;3538653;27;20361;-78
2021/07/09 00:14:39;;;;;;;;;;;;;;;26.32;46.78;100600.22;3527496;28;19931;-78
2021/07/09 00:16:20;;;;;;;;;;;;;;;26.31;46.88;100598.59;3524683;28;19920;-78
2021/07/09 00:18:00;;;;;;;;;;;;;;;26.30;46.86;100597.75;3524423;28;20404;-77
2021/07/09 00:19:41;;;;;;;;;;;;;;;26.31;46.74;100591.22;3534256;28;19927;-78
2021/07/09 00:21:22;;;;;;;;;;;;;;;26.32;46.98;100594.75;3538931;28;19923;-77
2021/07/09 00:23:04;;;;;;;;;;;;;;;26.32;46.95;100589.28;3523172;28;19924;-77
2021/07/09 00:24:44;;;;;;;;;;;;;;;26.31;46.80;100590.41;3520790;28;20297;-78
2021/07/09 00:26:25;;;;;;;;;;;;;;;26.30;46.76;100591.47;3520929;28;19924;-78
2021/07/09 00:28:05;;;;;;;;;;;;;;;26.28;46.91;100588.19;3533835;28;19924;-79
2021/07/09 00:29:46;;;;;;;;;;;;;;;26.26;46.81;100596.69;3531157;28;19924;-78
2021/07/09 00:31:29;;;;;;;;;;;;;;;26.23;47.15;100597.25;3524718;28;19931;-76
2021/07/09 00:33:09;;;;;;;;;;;;;;;26.19;47.23;100593.41;3510002;28;20294;-76
2021/07/09 00:34:50;;;;;;;;;;;;;;;26.16;47.16;100595.91;3521742;28;20018;-78
2021/07/09 00:36:31;;;;;;;;;;;;;;;26.11;47.39;100586.59;3524630;28;20083;-79
2021/07/09 00:38:12;;;;;;;;;;;;;;;26.09;47.33;100586.06;3524731;28;19924;-76
2021/07/09 00:39:52;;;;;;;;;;;;;;;26.08;47.34;100589.88;3530159;27;19937;-78
2021/07/09 00:41:33;;;;;;;;;;;;;;;26.08;47.63;100586.34;3541806;27;20017;-79
2021/07/09 00:43:13;;;;;;;;;;;;;;;26.08;47.13;100586.34;3529412;27;19993;-78
2021/07/09 00:44:54;;;;;;;;;;;;;;;26.07;47.22;100588.25;3533626;27;19930;-78
2021/07/09 00:46:35;;;;;;;;;;;;;;;26.05;47.64;100584.97;3541283;27;20005;-77
2021/07/09 00:48:16;;;;;;;;;;;;;;;26.04;47.72;100582.50;3526683;28;19924;-77
2021/07/09 00:49:57;;;;;;;;;;;;;;;26.02;47.66;100585.53;3495660;28;19932;-77
2021/07/09 00:51:38;;;;;;;;;;;;;;;26.03;47.59;100586.34;3532932;27;19923;-80
2021/07/09 00:53:18;;;;;;;;;;;;;;;26.02;47.66;100580.06;3536224;27;19924;-77
2021/07/09 00:54:59;;;;;;;;;;;;;;;26.02;47.87;100588.28;3527312;28;19945;-79
2021/07/09 00:56:39;;;;;;;;;;;;;;;26.01;47.81;100588.53;3527276;28;19930;-77
2021/07/09 00:58:20;;;;;;;;;;;;;;;25.99;47.57;100586.06;3512232;28;20440;-77
2021/07/09 01:00:01;;;;;;;;;;;;;;;25.97;47.69;100582.81;3509315;28;19931;-79
2021/07/09 01:01:41;;;;;;;;;;;;;;;25.96;47.76;100575.69;3512120;28;19916;-79
2021/07/09 01:03:22;;;;;;;;;;;;;;;25.95;48.07;100574.06;3525115;27;19992;-77
2021/07/09 01:05:06;;;;;;;;;;;;;;;25.94;47.64;100582.53;3527032;28;19924;-77
2021/07/09 01:06:46;;;;;;;;;;;;;;;25.94;48.10;100577.06;3527291;28;19924;-77
2021/07/09 01:08:27;;;;;;;;;;;;;;;25.93;47.60;100572.72;3527142;28;19919;-77
2021/07/09 01:10:08;;;;;;;;;;;;;;;25.94;47.81;100577.88;3512136;28;19924;-79
2021/07/09 01:11:50;;;;;;;;;;;;;;;25.93;47.71;100576.25;3524146;28;19919;-79
2021/07/09 01:13:31;;;;;;;;;;;;;;;25.93;47.82;100562.59;3526963;27;19943;-78
2021/07/09 01:15:13;;;;;;;;;;;;;;;25.92;48.09;100574.63;3512216;28;20465;-77
2021/07/09 01:16:54;;;;;;;;;;;;;;;25.92;47.82;100574.63;3515861;28;20008;-77
2021/07/09 01:18:34;;;;;;;;;;;;;;;25.93;48.25;100572.72;3522955;28;20279;-77
2021/07/09 01:20:16;;;;;;;;;;;;;;;25.92;48.04;100571.91;3538044;27;20437;-77
2021/07/09 01:21:57;;;;;;;;;;;;;;;25.92;48.22;100579.25;3540422;27;19924;-78
2021/07/09 01:23:38;;;;;;;;;;;;;;;25.91;48.37;100575.69;3516612;28;19930;-79
2021/07/09 01:25:26;;;;;;;;;;;;;;;25.87;48.47;100578.19;3498072;28;19924;-78
2021/07/09 01:27:08;;;;;;;;;;;;;;;25.84;48.18;100583.31;3527795;27;19945;-78
2021/07/09 01:28:48;;;;;;;;;;;;;;;25.82;48.39;100574.59;3541286;27;19963;-77
2021/07/09 01:30:29;;;;;;;;;;;;;;;25.80;48.50;100579.53;3541049;27;19928;-79
2021/07/09 01:32:09;;;;;;;;;;;;;;;25.79;48.16;100572.41;3540014;27;19923;-78
2021/07/09 01:33:50;;;;;;;;;;;;;;;25.77;48.67;100571.88;3525833;28;19977;-77
2021/07/09 01:35:31;;;;;;;;;;;;;;;25.76;48.58;100570.22;3537887;27;19930;-79
2021/07/09 01:37:15;;;;;;;;;;;;;;;25.72;48.79;100567.22;3518945;28;20314;-78
2021/07/09 01:38:55;;;;;;;;;;;;;;;25.72;48.38;100566.41;3524355;28;19932;-79
2021/07/09 01:40:37;;;;;;;;;;;;;;;25.73;48.92;100570.78;3511457;28;20405;-78
2021/07/09 01:42:17;;;;;;;;;;;;;;;25.70;48.60;100568.59;3523797;27;19975;-77
2021/07/09 01:43:57;;;;;;;;;;;;;;;25.68;48.84;100572.41;3526524;28;19924;-76
2021/07/09 01:45:38;;;;;;;;;;;;;;;25.68;48.80;100564.22;3526617;28;19923;-78
2021/07/09 01:47:18;;;;;;;;;;;;;;;25.67;48.60;100568.03;3535516;27;19930;-77
2021/07/09 01:48:59;;;;;;;;;;;;;;;25.68;48.77;100564.22;3525419;28;20317;-77
2021/07/09 01:50:40;;;;;;;;;;;;;;;25.68;48.56;100572.41;3522253;28;19924;-77
2021/07/09 01:52:20;;;;;;;;;;;;;;;25.68;49.37;100564.22;3521421;28;19924;-77
2021/07/09 01:54:01;;;;;;;;;;;;;;;25.66;49.15;100568.31;3537479;27;19923;-77
2021/07/09 01:55:41;;;;;;;;;;;;;;;25.64;49.17;100565.06;3540411;27;19928;-76
2021/07/09 01:57:22;;;;;;;;;;;;;;;25.63;49.10;100572.41;3529009;27;19995;-78
2021/07/09 01:59:03;;;;;;;;;;;;;;;25.64;48.93;100571.31;3526304;28;20479;-77
2021/07/09 02:00:45;;;;;;;;;;;;;;;25.67;49.45;100568.03;3526614;27;20421;-78
2021/07/09 02:02:25;;;;;;;;;;;;;;;25.69;49.18;100565.06;3526089;27;19916;-78
2021/07/09 02:04:06;;;;;;;;;;;;;;;25.71;49.43;100572.94;3526239;28;20527;-77
2021/07/09 02:05:46;;;;;;;;;;;;;;;25.71;49.21;100572.94;3526304;28;19916;-78
2021/07/09 02:07:27;;;;;;;;;;;;;;;25.71;49.40;100575.69;3533279;27;19923;-78
2021/07/09 02:09:08;;;;;;;;;;;;;;;25.70;49.68;100576.78;3540515;27;20374;-79
2021/07/09 02:10:48;;;;;;;;;;;;;;;25.71;49.54;100567.50;3520252;28;20010;-78
2021/07/09 02:12:29;;;;;;;;;;;;;;;25.71;49.68;100572.94;3497238;28;19929;-79
2021/07/09 02:14:09;;;;;;;;;;;;;;;25.71;49.50;100568.31;3520484;28;20412;-78
2021/07/09 02:15:50;;;;;;;;;;;;;;;25.72;49.53;100564.50;3526019;27;19924;-78
2021/07/09 02:17:30;;;;;;;;;;;;;;;25.72;49.64;100564.50;3526002;28;19923;-77
2021/07/09 02:19:11;;;;;;;;;;;;;;;25.74;49.56;100564.22;3511179;28;19931;-77
2021/07/09 02:20:52;;;;;;;;;;;;;;;25.76;49.34;100568.31;3512569;28;19923;-78
2021/07/09 02:22:32;;;;;;;;;;;;;;;25.76;49.72;100572.94;3525036;28;19931;-78
2021/07/09 02:24:14;;;;;;;;;;;;;;;25.76;49.65;100570.22;3537234;27;19923;-78
2021/07/09 02:25:57;;;;;;;;;;;;;;;25.75;49.76;100558.47;3539928;27;20452;-77
2021/07/09 02:27:38;;;;;;;;;;;;;;;25.74;49.78;100570.50;3530045;27;19924;-77
2021/07/09 02:29:19;;;;;;;;;;;;;;;25.75;49.58;100574.06;3526889;27;19928;-78
2021/07/09 02:31:00;;;;;;;;;;;;;;;25.75;49.49;100580.34;3524848;28;19931;-78
2021/07/09 02:32:40;;;;;;;;;;;;;;;25.77;49.53;100569.97;3537121;27;20018;-79
2021/07/09 02:34:21;;;;;;;;;;;;;;;25.79;49.28;100575.13;3525228;28;19924;-78
2021/07/09 02:36:01;;;;;;;;;;;;;;;25.80;49.35;100571.31;3521990;28;19958;-80
2021/07/09 02:37:42;;;;;;;;;;;;;;;25.80;49.40;100576.78;3535929;27;19923;-79
2021/07/09 02:39:25;;;;;;;;;;;;;;;25.80;49.40;100577.59;3510645;28;19928;-78
2021/07/09 02:41:05;;;;;;;;;;;;;;;25.82;49.60;100567.22;3522833;28;19930;-77
2021/07/09 02:42:47;;;;;;;;;;;;;;;25.83;49.60;100559.84;3510907;28;20322;-76
2021/07/09 02:44:28;;;;;;;;;;;;;;;25.84;48.99;100570.53;3522948;28;20392;-78
2021/07/09 02:46:08;;;;;;;;;;;;;;;25.84;49.74;100573.28;3525727;28;19930;-77
2021/07/09 02:47:49;;;;;;;;;;;;;;;25.86;49.47;100572.97;3505156;28;19923;-78
2021/07/09 02:49:29;;;;;;;;;;;;;;;25.87;49.61;100563.72;3518148;28;20014;-77
2021/07/09 02:51:10;;;;;;;;;;;;;;;25.88;49.57;100565.34;3524626;28;19924;-77
2021/07/09 02:52:50;;;;;;;;;;;;;;;25.89;49.84;100570.53;3536996;27;20421;-79
2021/07/09 02:54:31;;;;;;;;;;;;;;;25.89;49.71;100564.22;3539809;27;19930;-77
2021/07/09 02:56:11;;;;;;;;;;;;;;;25.92;49.99;100574.63;3539857;27;19927;-79
2021/07/09 02:57:52;;;;;;;;;;;;;;;25.91;49.54;100570.25;3527653;27;20010;-79
2021/07/09 02:59:32;;;;;;;;;;;;;;;25.92;49.71;100569.16;3510595;28;20363;-79
2021/07/09 03:01:13;;;;;;;;;;;;;;;25.95;49.61;100571.34;3536056;27;19924;-76
2021/07/09 03:02:54;;;;;;;;;;;;;;;25.96;49.28;100574.88;3538894;27;19927;-77
2021/07/09 03:04:34;;;;;;;;;;;;;;;25.97;49.52;100566.44;3539734;27;19923;-77
2021/07/09 03:06:15;;;;;;;;;;;;;;;25.99;49.37;100574.31;3524526;28;19923;-79
2021/07/09 03:07:55;;;;;;;;;;;;;;;26.00;49.27;100571.34;3534749;27;19923;-77
2021/07/09 03:09:36;;;;;;;;;;;;;;;26.01;49.83;100567.50;3524637;28;20014;-77
2021/07/09 03:11:17;;;;;;;;;;;;;;;26.03;49.48;100576.25;3534859;27;19930;-79
2021/07/09 03:12:57;;;;;;;;;;;;;;;26.06;49.42;100572.94;3524491;28;19930;-81
2021/07/09 03:14:40;;;;;;;;;;;;;;;26.10;49.37;100570.50;3536478;27;19924;-77
2021/07/09 03:16:20;;;;;;;;;;;;;;;26.13;49.13;100569.13;3539219;27;19946;-78
2021/07/09 03:18:00;;;;;;;;;;;;;;;26.14;49.23;100568.03;3517934;28;19923;-78
2021/07/09 03:19:41;;;;;;;;;;;;;;;26.17;49.41;100565.53;3522180;28;19930;-78
2021/07/09 03:21:23;;;;;;;;;;;;;;;26.20;49.23;100569.63;3509893;28;20118;-78
2021/07/09 03:23:04;;;;;;;;;;;;;;;26.24;49.32;100570.72;3510196;28;19951;-78
2021/07/09 03:24:44;;;;;;;;;;;;;;;26.27;48.95;100570.97;3522272;27;19924;-79
2021/07/09 03:26:25;;;;;;;;;;;;;;;26.29;48.98;100568.78;3525136;28;19969;-79
2021/07/09 03:28:06;;;;;;;;;;;;;;;26.32;48.89;100564.69;3516748;28;20449;-78
2021/07/09 03:29:46;;;;;;;;;;;;;;;26.33;49.03;100569.88;3535292;27;19931;-78
2021/07/09 03:31:30;;;;;;;;;;;;;;;26.33;49.12;100574.50;3539168;27;19962;-77
2021/07/09 03:33:11;;;;;;;;;;;;;;;26.33;49.20;100569.03;3524267;28;19924;-77
2021/07/09 03:34:51;;;;;;;;;;;;;;;26.36;49.03;100567.66;3536281;27;19930;-78
2021/07/09 03:36:32;;;;;;;;;;;;;;;26.38;49.22;100569.03;3510185;28;19924;-79
2021/07/09 03:38:12;;;;;;;;;;;;;;;26.40;49.05;100569.56;3524303;27;19931;-77
2021/07/09 03:39:53;;;;;;;;;;;;;;;26.45;49.24;100566.00;3525140;27;19976;-78
2021/07/09 03:41:33;;;;;;;;;;;;;;;26.49;49.07;100572.56;3538271;27;19974;-78
2021/07/09 03:43:14;;;;;;;;;;;;;;;26.53;48.74;100571.75;3539359;27;19923;-77
2021/07/09 03:44:55;;;;;;;;;;;;;;;26.56;48.69;100567.63;3539399;27;20370;-78
2021/07/09 03:46:36;;;;;;;;;;;;;;;26.61;48.62;100575.00;3523883;28;20010;-78
2021/07/09 03:48:17;;;;;;;;;;;;;;;26.66;48.53;100569.50;3527060;27;20310;-78
2021/07/09 03:49:57;;;;;;;;;;;;;;;26.70;48.64;100573.34;3524892;28;20309;-78
2021/07/09 03:51:39;;;;;;;;;;;;;;;26.73;48.44;100573.59;3517855;28;19927;-78
2021/07/09 03:53:19;;;;;;;;;;;;;;;26.77;48.59;100571.13;3536339;27;20067;-77
2021/07/09 03:55:00;;;;;;;;;;;;;;;26.79;48.46;100571.63;3538622;27;19923;-79
2021/07/09 03:56:40;;;;;;;;;;;;;;;26.82;48.33;100575.72;3523781;28;19924;-76
2021/07/09 03:58:21;;;;;;;;;;;;;;;26.87;48.49;100578.44;3534086;27;19923;-77
2021/07/09 04:00:02;;;;;;;;;;;;;;;26.89;48.45;100571.59;3539052;27;19924;-76
2021/07/09 04:01:43;;;;;;;;;;;;;;;26.93;48.24;100564.47;3522772;28;19946;-79
2021/07/09 04:03:23;;;;;;;;;;;;;;;26.98;48.08;100563.63;3520839;28;19924;-78
2021/07/09 04:05:04;;;;;;;;;;;;;;;27.00;48.41;100555.94;3534038;27;19923;-77
2021/07/09 04:06:45;;;;;;;;;;;;;;;27.05;48.34;100566.03;3509799;28;20378;-76
2021/07/09 04:08:25;;;;;;;;;;;;;;;27.06;48.36;100571.22;3522827;28;19930;-77
2021/07/09 04:10:06;;;;;;;;;;;;;;;27.09;48.31;100564.38;3524906;28;19973;-76
2021/07/09 04:11:47;;;;;;;;;;;;;;;27.12;48.33;100561.06;3524760;28;19930;-78
2021/07/09 04:13:27;;;;;;;;;;;;;;;27.17;48.21;100563.75;3524739;28;20006;-77
2021/07/09 04:15:08;;;;;;;;;;;;;;;27.21;47.75;100564.88;3524683;28;20014;-78
2021/07/09 04:16:49;;;;;;;;;;;;;;;27.26;48.19;100558.53;3524634;28;19959;-79
2021/07/09 04:18:29;;;;;;;;;;;;;;;27.32;48.01;100562.88;3513338;28;20337;-79
2021/07/09 04:20:10;;;;;;;;;;;;;;;27.36;47.97;100564.78;3535912;28;19930;-77
2021/07/09 04:21:51;;;;;;;;;;;;;;;27.41;47.63;100572.91;3522820;28;19919;-78
2021/07/09 04:23:31;;;;;;;;;;;;;;;27.44;47.67;100566.06;3520777;28;20563;-78
2021/07/09 04:25:12;;;;;;;;;;;;;;;27.48;47.71;100561.66;3520757;28;19970;-78
2021/07/09 04:26:53;;;;;;;;;;;;;;;27.52;47.73;100559.16;3535958;28;19927;-77
2021/07/09 04:28:33;;;;;;;;;;;;;;;27.57;47.57;100564.59;3529385;28;20283;-80
2021/07/09 04:30:14;;;;;;;;;;;;;;;27.61;47.62;100557.44;3524670;28;20248;-80
2021/07/09 04:31:54;;;;;;;;;;;;;;;27.67;47.57;100561.75;3509535;28;20379;-78
2021/07/09 04:33:35;;;;;;;;;;;;;;;27.71;46.96;100559.28;3528397;28;19951;-81
2021/07/09 04:35:15;;;;;;;;;;;;;;;27.74;46.93;100558.69;3509692;28;19924;-79
2021/07/09 04:36:56;;;;;;;;;;;;;;;27.78;47.22;100554.28;3509511;28;19923;-78
2021/07/09 04:38:37;;;;;;;;;;;;;;;27.81;46.84;100551.81;3529679;28;20409;-78
2021/07/09 04:40:17;;;;;;;;;;;;;;;27.86;46.94;100561.09;3523802;28;20000;-78
2021/07/09 04:41:58;;;;;;;;;;;;;;;27.90;46.82;100551.19;3534358;28;19927;-81
2021/07/09 04:43:39;;;;;;;;;;;;;;;27.92;46.44;100552.53;3538680;28;19971;-78
2021/07/09 04:45:20;;;;;;;;;;;;;;;27.95;46.47;100548.38;3538888;28;19923;-76
2021/07/09 04:47:01;;;;;;;;;;;;;;;27.99;46.32;100550.25;3523580;28;20600;-77
2021/07/09 04:48:41;;;;;;;;;;;;;;;28.03;46.58;100542.25;3533698;28;20429;-78
2021/07/09 04:50:22;;;;;;;;;;;;;;;28.06;46.41;100544.41;3523676;28;19924;-78
2021/07/09 04:52:02;;;;;;;;;;;;;;;28.08;46.19;100547.69;3534653;28;20290;-76
2021/07/09 04:53:44;;;;;;;;;;;;;;;28.12;46.15;100540.53;3536583;28;19962;-79
2021/07/09 04:55:24;;;;;;;;;;;;;;;28.16;46.10;100544.31;3538596;28;19929;-79
2021/07/09 04:57:05;;;;;;;;;;;;;;;28.20;46.11;100539.88;3538599;28;19923;-78
2021/07/09 04:58:45;;;;;;;;;;;;;;;28.23;46.14;100533.81;3517098;28;19979;-77
2021/07/09 05:00:26;;;;;;;;;;;;;;;28.26;46.22;100535.97;3522617;28;20060;-78
2021/07/09 05:02:06;;;;;;;;;;;;;;;28.32;45.59;100536.75;3532840;28;20022;-79
2021/07/09 05:03:47;;;;;;;;;;;;;;;28.36;45.79;100539.72;3538554;28;19975;-78
2021/07/09 05:05:27;;;;;;;;;;;;;;;28.40;45.79;100540.78;3538459;28;20484;-79
2021/07/09 05:07:08;;;;;;;;;;;;;;;28.44;45.43;100547.31;3538525;28;21118;-79
2021/07/09 05:08:48;;;;;;;;;;;;;;;28.48;45.49;100540.97;3536574;28;20028;-77
2021/07/09 05:10:29;;;;;;;;;;;;;;;28.52;45.29;100543.91;3537551;28;20068;-78
2021/07/09 05:12:09;;;;;;;;;;;;;;;28.57;45.35;100546.59;3538325;28;19923;-77
2021/07/09 05:13:51;;;;;;;;;;;;;;;28.61;45.19;100544.91;3523555;28;20375;-78
2021/07/09 05:15:32;;;;;;;;;;;;;;;28.66;45.54;100546.78;3535457;28;19930;-78
2021/07/09 05:17:13;;;;;;;;;;;;;;;28.70;45.37;100539.56;3538264;28;19967;-77
2021/07/09 05:18:54;;;;;;;;;;;;;;;28.74;45.08;100531.59;3509070;28;19931;-78
2021/07/09 05:20:35;;;;;;;;;;;;;;;28.78;45.01;100544.41;3521721;28;19924;-76
2021/07/09 05:22:15;;;;;;;;;;;;;;;28.82;44.85;100533.66;3509094;28;19958;-77
2021/07/09 05:23:56;;;;;;;;;;;;;;;28.86;45.00;100543.75;3520995;28;19945;-79
2021/07/09 05:25:37;;;;;;;;;;;;;;;28.89;44.97;100534.94;3524905;28;20247;-76
2021/07/09 05:27:17;;;;;;;;;;;;;;;28.96;45.03;100540.03;3539087;27;19920;-80
2021/07/09 05:28:58;;;;;;;;;;;;;;;29.01;44.71;100545.44;3515155;28;19928;-78
2021/07/09 05:30:38;;;;;;;;;;;;;;;29.06;44.34;100537.16;3523605;27;19927;-79
2021/07/09 05:32:23;;;;;;;;;;;;;;;29.11;44.42;100539.03;3526453;28;19923;-77
2021/07/09 05:34:04;;;;;;;;;;;;;;;29.16;44.22;100538.13;3526335;28;19924;-79
2021/07/09 05:35:44;;;;;;;;;;;;;;;29.19;44.50;100532.84;3526404;28;20026;-78
2021/07/09 05:37:25;;;;;;;;;;;;;;;29.25;44.43;100530.84;3526804;28;20334;-78
2021/07/09 05:39:05;;;;;;;;;;;;;;;29.30;44.19;100533.50;3512258;28;19932;-79
2021/07/09 05:40:46;;;;;;;;;;;;;;;29.35;44.25;100533.41;3508406;28;19976;-79
2021/07/09 05:42:26;;;;;;;;;;;;;;;29.39;43.88;100526.22;3523464;28;20445;-79
2021/07/09 05:44:07;;;;;;;;;;;;;;;29.43;43.91;100524.53;3497296;28;19929;-80
2021/07/09 05:45:47;;;;;;;;;;;;;;;29.50;43.77;100526.88;3520676;27;19927;-77
2021/07/09 05:47:29;;;;;;;;;;;;;;;29.56;43.89;100525.69;3526060;28;19963;-78
2021/07/09 05:49:09;;;;;;;;;;;;;;;29.63;43.58;100525.28;3512285;28;20322;-79
2021/07/09 05:50:50;;;;;;;;;;;;;;;29.68;43.96;100527.97;3523446;27;20114;-78
2021/07/09 05:52:30;;;;;;;;;;;;;;;29.73;43.74;100527.88;3539653;27;20019;-78
2021/07/09 05:54:11;;;;;;;;;;;;;;;29.79;43.47;100526.66;3540679;27;19959;-78
2021/07/09 05:55:51;;;;;;;;;;;;;;;29.82;43.76;100525.22;3540716;27;20389;-78
2021/07/09 05:57:32;;;;;;;;;;;;;;;29.87;43.56;100527.88;3540396;27;20017;-79
2021/07/09 05:59:12;;;;;;;;;;;;;;;29.89;43.27;100520.97;3521254;28;19993;-79
2021/07/09 06:00:53;;;;;;;;;;;;;;;29.92;43.48;100517.63;3523116;28;19923;-80
2021/07/09 06:02:33;;;;;;;;;;;;;;;29.96;43.62;100515.88;3508284;28;19920;-76
2021/07/09 06:04:14;;;;;;;;;;;;;;;30.00;43.59;100522.41;3508051;28;20030;-78
2021/07/09 06:05:55;;;;;;;;;;;;;;;30.06;43.11;100522.31;3523130;28;19947;-80
2021/07/09 06:07:35;;;;;;;;;;;;;;;30.10;43.31;100523.31;3526338;28;19926;-78
2021/07/09 06:09:16;;;;;;;;;;;;;;;30.14;43.22;100510.59;3500485;28;20527;-79
2021/07/09 06:10:57;;;;;;;;;;;;;;;30.17;43.20;100519.03;3508732;28;19920;-77
2021/07/09 06:12:37;;;;;;;;;;;;;;;30.20;43.19;100523.13;3523354;27;19923;-78
2021/07/09 06:14:18;;;;;;;;;;;;;;;30.25;42.92;100520.31;3526262;28;19955;-79
2021/07/09 06:15:59;;;;;;;;;;;;;;;30.30;42.53;100524.88;3526225;28;19923;-80
2021/07/09 06:17:39;;;;;;;;;;;;;;;30.33;42.88;100522.31;3526239;28;19946;-78
2021/07/09 06:19:21;;;;;;;;;;;;;;;30.38;42.59;100518.66;3528203;27;19923;-81
2021/07/09 06:21:01;;;;;;;;;;;;;;;30.42;42.53;100517.75;3524944;28;19927;-78
2021/07/09 06:22:46;;;;;;;;;;;;;;;30.48;42.41;100525.91;3535464;27;19923;-79
2021/07/09 06:24:27;;;;;;;;;;;;;;;30.53;42.41;100510.09;3517093;28;20026;-80
2021/07/09 06:26:08;;;;;;;;;;;;;;;30.62;42.09;100518.44;3535948;27;20350;-81
2021/07/09 06:27:49;;;;;;;;;;;;;;;30.71;42.27;100519.31;3540669;27;20035;-80
2021/07/09 06:29:29;;;;;;;;;;;;;;;30.80;42.00;100520.22;3540914;27;19928;-78
2021/07/09 06:31:10;;;;;;;;;;;;;;;30.90;41.99;100516.44;3514320;28;19923;-76
2021/07/09 06:32:50;;;;;;;;;;;;;;;31.00;41.84;100515.41;3537042;27;19927;-77
2021/07/09 06:34:32;;;;;;;;;;;;;;;31.07;41.76;100513.84;3539896;27;20381;-78
2021/07/09 06:36:12;;;;;;;;;;;;;;;31.16;41.42;100508.41;3540047;27;19978;-78
2021/07/09 06:37:53;;;;;;;;;;;;;;;31.26;41.43;100510.91;3540167;27;20389;-79
2021/07/09 06:39:33;;;;;;;;;;;;;;;31.38;41.16;100509.56;3532187;27;20459;-79
2021/07/09 06:41:14;;;;;;;;;;;;;;;31.47;41.01;100511.25;3527853;27;19924;-77
2021/07/09 06:42:54;;;;;;;;;;;;;;;31.58;40.65;100508.22;3539905;27;19930;-79
2021/07/09 06:44:35;;;;;;;;;;;;;;;31.69;40.56;100499.34;3539924;27;19923;-78
2021/07/09 06:46:15;;;;;;;;;;;;;;;31.79;40.18;100505.75;3539970;27;20305;-80
2021/07/09 06:47:56;;;;;;;;;;;;;;;31.88;40.11;100503.81;3539895;27;19991;-77
2021/07/09 06:49:37;;;;;;;;;;;;;;;31.98;40.16;100498.03;3537783;27;20020;-79
2021/07/09 06:51:17;;;;;;;;;;;;;;;32.05;39.90;100495.66;3538953;27;19976;-78
2021/07/09 06:52:58;;;;;;;;;;;;;;;32.11;39.80;100494.34;3539667;27;20069;-77
2021/07/09 06:54:38;;;;;;;;;;;;;;;32.15;39.53;100497.31;3539819;27;20390;-79
2021/07/09 06:56:21;;;;;;;;;;;;;;;32.13;39.56;100505.91;3524255;28;19931;-81
2021/07/09 06:58:02;;;;;;;;;;;;;;;32.18;39.47;100506.88;3522076;28;19924;-80
2021/07/09 06:59:44;;;;;;;;;;;;;;;32.25;39.10;100508.06;3531669;27;19924;-79
2021/07/09 07:01:24;;;;;;;;;;;;;;;32.34;38.82;100503.34;3525521;27;19935;-78
2021/07/09 07:03:07;;;;;;;;;;;;;;;32.45;38.81;100508.56;3525280;28;19941;-79
2021/07/09 07:04:48;;;;;;;;;;;;;;;32.53;38.62;100508.63;3501361;28;20065;-80
2021/07/09 07:06:29;;;;;;;;;;;;;;;32.61;38.18;100498.75;3518768;28;19923;-79
2021/07/09 07:08:13;;;;;;;;;;;;;;;32.68;38.20;100501.00;3534783;27;19923;-80
2021/07/09 07:09:57;;;;;;;;;;;;;;;32.76;37.88;100501.03;3515280;28;19928;-80
2021/07/09 07:11:38;;;;;;;;;;;;;;;32.83;37.59;100505.25;3526226;27;19923;-78
2021/07/09 07:13:19;;;;;;;;;;;;;;;32.90;37.72;100503.63;3510302;28;20015;-77
2021/07/09 07:15:01;;;;;;;;;;;;;;;32.97;37.76;100498.44;3522204;28;20428;-78
2021/07/09 07:16:42;;;;;;;;;;;;;;;33.04;37.46;100503.47;3510223;28;20319;-79
2021/07/09 07:18:23;;;;;;;;;;;;;;;33.13;37.41;100497.97;3521764;28;19931;-77
2021/07/09 07:20:04;;;;;;;;;;;;;;;33.19;37.46;100494.69;3531256;27;19931;-79
2021/07/09 07:21:44;;;;;;;;;;;;;;;33.24;37.31;100496.47;3539549;27;19922;-78
2021/07/09 07:23:25;;;;;;;;;;;;;;;33.31;36.95;100498.75;3535549;27;20382;-79
2021/07/09 07:25:08;;;;;;;;;;;;;;;33.37;36.77;100498.22;3530616;27;19916;-78
2021/07/09 07:26:50;;;;;;;;;;;;;;;33.44;36.72;100498.53;3491255;28;19928;-79
2021/07/09 07:28:31;;;;;;;;;;;;;;;33.50;36.73;100507.47;3520378;27;20378;-79
2021/07/09 07:30:13;;;;;;;;;;;;;;;33.56;36.29;100506.19;3524838;27;19923;-79
2021/07/09 07:31:54;;;;;;;;;;;;;;;33.60;36.40;100503.56;3525702;27;20327;-81
2021/07/09 07:33:39;;;;;;;;;;;;;;;33.65;36.50;100508.94;3509382;28;20085;-81
2021/07/09 07:35:20;;;;;;;;;;;;;;;33.75;36.16;100503.03;3495511;28;20379;-81
2021/07/09 07:37:02;;;;;;;;;;;;;;;33.83;35.73;100510.50;3495117;28;19925;-80
2021/07/09 07:38:43;;;;;;;;;;;;;;;33.95;35.88;100504.28;3507765;28;19924;-80
2021/07/09 07:40:24;;;;;;;;;;;;;;;34.08;35.42;100502.44;3508122;28;19946;-82
2021/07/09 07:42:06;;;;;;;;;;;;;;;34.19;35.50;100506.44;3524979;27;19977;-81
2021/07/09 07:43:49;;;;;;;;;;;;;;;34.21;35.52;100501.41;3530392;27;19923;-80
2021/07/09 07:45:35;;;;;;;;;;;;;;;34.16;35.50;100498.03;3509372;28;19924;-80
2021/07/09 07:47:21;;;;;;;;;;;;;;;34.10;35.45;100505.66;3526493;28;19977;-78
2021/07/09 07:49:04;;;;;;;;;;;;;;;34.05;35.46;100503.06;3514287;28;19916;-80
2021/07/09 07:50:48;;;;;;;;;;;;;;;34.04;35.49;100505.03;3523603;28;19989;-78
2021/07/09 07:52:31;;;;;;;;;;;;;;;34.06;35.42;100496.41;3538745;27;19924;-82
2021/07/09 07:54:13;;;;;;;;;;;;;;;34.14;35.42;100503.06;3514146;28;20406;-78
2021/07/09 07:55:53;;;;;;;;;;;;;;;34.23;34.88;100496.34;3508889;28;19995;-79
2021/07/09 07:57:34;;;;;;;;;;;;;;;34.33;34.53;100483.25;3521160;27;20018;-79
2021/07/09 07:59:14;;;;;;;;;;;;;;;34.42;34.55;100486.78;3524434;27;19923;-81
2021/07/09 08:00:58;;;;;;;;;;;;;;;34.46;34.15;100493.25;3524699;28;20459;-81
2021/07/09 08:02:40;;;;;;;;;;;;;;;34.56;34.20;100497.59;3523991;28;19931;-82
2021/07/09 08:04:20;;;;;;;;;;;;;;;34.66;34.52;100498.03;3518886;28;19923;-81
2021/07/09 08:06:01;;;;;;;;;;;;;;;34.79;33.86;100495.34;3533759;27;19926;-79
2021/07/09 08:07:42;;;;;;;;;;;;;;;34.88;33.71;100501.63;3498681;28;19987;-80
2021/07/09 08:09:23;;;;;;;;;;;;;;;34.95;33.47;100485.25;3510586;28;20035;-79
2021/07/09 08:11:04;;;;;;;;;;;;;;;34.98;33.45;100487.31;3534712;27;19923;-79
2021/07/09 08:12:44;;;;;;;;;;;;;;;35.07;33.27;100490.03;3522868;28;19927;-80
2021/07/09 08:14:25;;;;;;;;;;;;;;;35.19;33.48;100487.34;3519877;28;19931;-78
2021/07/09 08:16:07;;;;;;;;;;;;;;;35.29;33.12;100486.91;3532557;27;19975;-78
2021/07/09 08:17:48;;;;;;;;;;;;;;;35.39;33.43;100491.19;3523846;27;19924;-81
2021/07/09 08:19:29;;;;;;;;;;;;;;;35.52;33.23;100492.03;3525906;28;20390;-79
2021/07/09 08:21:09;;;;;;;;;;;;;;;35.64;33.27;100480.19;3517238;28;19929;-80
2021/07/09 08:22:51;;;;;;;;;;;;;;;35.76;32.78;100489.34;3524682;28;19942;-79
2021/07/09 08:24:32;;;;;;;;;;;;;;;35.85;32.65;100480.91;3531593;28;20046;-78
2021/07/09 08:26:15;;;;;;;;;;;;;;;35.97;32.39;100475.34;3523759;28;19923;-77
2021/07/09 08:27:56;;;;;;;;;;;;;;;36.06;32.25;100478.00;3523932;28;20339;-81
2021/07/09 08:29:36;;;;;;;;;;;;;;;36.15;32.67;100477.94;3512801;28;19944;-80
2021/07/09 08:31:17;;;;;;;;;;;;;;;36.22;32.57;100475.34;3531026;28;20422;-80
2021/07/09 08:32:58;;;;;;;;;;;;;;;36.31;32.29;100473.28;3499102;28;19931;-82
2021/07/09 08:34:39;;;;;;;;;;;;;;;36.39;32.44;100477.88;3505538;28;19923;-81
2021/07/09 08:36:20;;;;;;;;;;;;;;;36.46;32.76;100467.00;3522810;28;20655;-80
2021/07/09 08:38:02;;;;;;;;;;;;;;;36.56;32.64;100465.75;3523966;28;19924;-79